sensor_id;sensor_type;location;lat;lon;timestamp;P1;durP1;ratioP1;P2;durP2;ratioP2
16033;SDS011;8121;51.418;6.998;2023-01-09T00:05:34;1.63;;;0.70;;
16033;SDS011;8121;51.418;6.998;2023-01-09T00:15:36;1.10;;;0.73;;
16033;SDS011;8121;51.418;6.998;2023-01-09T00:25:39;0.83;;;0.83;;
16033;SDS011;8121;51.418;6.998;2023-01-09T00:35:41;0.90;;;0.80;;
16033;SDS011;8121;51.418;6.998;2023-01-09T00:45:44;2.30;;;0.93;;
16033;SDS011;8121;51.418;6.998;2023-01-09T00:55:45;0.77;;;0.60;;
16033;SDS011;8121;51.418;6.998;2023-01-09T01:05:48;0.60;;;0.50;;
16033;SDS011;8121;51.418;6.998;2023-01-09T01:16:08;1.00;;;0.40;;
16033;SDS011;8121;51.418;6.998;2023-01-09T01:26:13;0.50;;;0.40;;
16033;SDS011;8121;51.418;6.998;2023-01-09T01:36:15;0.60;;;0.43;;
16033;SDS011;8121;51.418;6.998;2023-01-09T01:46:18;0.70;;;0.67;;
16033;SDS011;8121;51.418;6.998;2023-01-09T01:56:22;0.60;;;0.50;;
16033;SDS011;8121;51.418;6.998;2023-01-09T02:06:27;1.00;;;0.47;;
16033;SDS011;8121;51.418;6.998;2023-01-09T02:16:32;1.17;;;0.50;;
16033;SDS011;8121;51.418;6.998;2023-01-09T02:27:02;0.90;;;0.50;;
16033;SDS011;8121;51.418;6.998;2023-01-09T02:37:10;0.90;;;0.47;;
16033;SDS011;8121;51.418;6.998;2023-01-09T02:57:41;0.80;;;0.80;;
16033;SDS011;8121;51.418;6.998;2023-01-09T03:07:53;0.73;;;0.60;;
16033;SDS011;8121;51.418;6.998;2023-01-09T03:17:58;0.70;;;0.50;;
16033;SDS011;8121;51.418;6.998;2023-01-09T03:28:02;0.60;;;0.57;;
16033;SDS011;8121;51.418;6.998;2023-01-09T03:38:05;0.70;;;0.70;;
16033;SDS011;8121;51.418;6.998;2023-01-09T03:48:06;1.07;;;0.77;;
16033;SDS011;8121;51.418;6.998;2023-01-09T03:58:09;0.60;;;0.50;;
16033;SDS011;8121;51.418;6.998;2023-01-09T04:08:11;0.90;;;0.80;;
16033;SDS011;8121;51.418;6.998;2023-01-09T04:18:14;4.83;;;0.80;;
16033;SDS011;8121;51.418;6.998;2023-01-09T04:28:16;0.93;;;0.77;;
16033;SDS011;8121;51.418;6.998;2023-01-09T04:38:19;1.93;;;0.90;;
16033;SDS011;8121;51.418;6.998;2023-01-09T04:48:20;2.10;;;0.80;;
16033;SDS011;8121;51.418;6.998;2023-01-09T04:58:23;2.13;;;0.93;;
16033;SDS011;8121;51.418;6.998;2023-01-09T05:08:24;1.63;;;1.07;;
16033;SDS011;8121;51.418;6.998;2023-01-09T05:18:27;1.43;;;0.83;;
16033;SDS011;8121;51.418;6.998;2023-01-09T05:28:29;4.20;;;1.03;;
16033;SDS011;8121;51.418;6.998;2023-01-09T05:38:32;1.73;;;1.10;;
16033;SDS011;8121;51.418;6.998;2023-01-09T05:48:33;2.17;;;1.10;;
16033;SDS011;8121;51.418;6.998;2023-01-09T05:58:36;2.50;;;1.00;;
16033;SDS011;8121;51.418;6.998;2023-01-09T06:08:38;7.43;;;0.93;;
16033;SDS011;8121;51.418;6.998;2023-01-09T06:18:41;1.20;;;0.90;;
16033;SDS011;8121;51.418;6.998;2023-01-09T06:28:42;11.30;;;1.57;;
16033;SDS011;8121;51.418;6.998;2023-01-09T06:38:45;0.60;;;0.40;;
16033;SDS011;8121;51.418;6.998;2023-01-09T06:48:46;3.60;;;0.90;;
16033;SDS011;8121;51.418;6.998;2023-01-09T06:58:49;3.10;;;0.80;;
16033;SDS011;8121;51.418;6.998;2023-01-09T07:08:51;0.87;;;0.70;;
16033;SDS011;8121;51.418;6.998;2023-01-09T07:18:54;0.90;;;0.80;;
16033;SDS011;8121;51.418;6.998;2023-01-09T07:28:55;2.73;;;1.03;;
16033;SDS011;8121;51.418;6.998;2023-01-09T07:38:58;2.40;;;0.83;;
16033;SDS011;8121;51.418;6.998;2023-01-09T07:49:00;2.27;;;1.00;;
16033;SDS011;8121;51.418;6.998;2023-01-09T07:59:03;0.73;;;0.67;;
16033;SDS011;8121;51.418;6.998;2023-01-09T08:09:04;1.00;;;0.80;;
16033;SDS011;8121;51.418;6.998;2023-01-09T08:19:07;1.77;;;0.90;;
16033;SDS011;8121;51.418;6.998;2023-01-09T08:29:11;1.03;;;0.80;;
16033;SDS011;8121;51.418;6.998;2023-01-09T08:39:14;1.03;;;0.60;;
16033;SDS011;8121;51.418;6.998;2023-01-09T08:49:15;3.13;;;0.60;;
16033;SDS011;8121;51.418;6.998;2023-01-09T08:59:18;1.33;;;0.93;;
16033;SDS011;8121;51.418;6.998;2023-01-09T09:09:19;2.20;;;0.70;;
16033;SDS011;8121;51.418;6.998;2023-01-09T09:19:22;1.83;;;0.80;;
16033;SDS011;8121;51.418;6.998;2023-01-09T09:29:24;5.20;;;1.00;;
16033;SDS011;8121;51.418;6.998;2023-01-09T09:39:27;7.03;;;1.03;;
16033;SDS011;8121;51.418;6.998;2023-01-09T09:49:31;1.20;;;0.73;;
16033;SDS011;8121;51.418;6.998;2023-01-09T09:59:37;3.43;;;1.17;;
16033;SDS011;8121;51.418;6.998;2023-01-09T10:09:41;17.90;;;1.50;;
16033;SDS011;8121;51.418;6.998;2023-01-09T10:19:56;5.33;;;0.90;;
16033;SDS011;8121;51.418;6.998;2023-01-09T10:30:25;3.03;;;1.00;;
16033;SDS011;8121;51.418;6.998;2023-01-09T10:40:34;1.40;;;0.90;;
16033;SDS011;8121;51.418;6.998;2023-01-09T10:50:38;0.97;;;0.87;;
16033;SDS011;8121;51.418;6.998;2023-01-09T11:00:43;3.77;;;0.90;;
16033;SDS011;8121;51.418;6.998;2023-01-09T11:10:46;1.43;;;0.70;;
16033;SDS011;8121;51.418;6.998;2023-01-09T11:20:49;2.10;;;1.00;;
16033;SDS011;8121;51.418;6.998;2023-01-09T11:30:55;1.63;;;0.90;;
16033;SDS011;8121;51.418;6.998;2023-01-09T11:41:01;4.43;;;0.90;;
16033;SDS011;8121;51.418;6.998;2023-01-09T11:51:15;4.13;;;0.80;;
16033;SDS011;8121;51.418;6.998;2023-01-09T12:01:24;6.00;;;1.00;;
16033;SDS011;8121;51.418;6.998;2023-01-09T12:11:35;5.70;;;1.70;;
16033;SDS011;8121;51.418;6.998;2023-01-09T12:21:43;2.63;;;1.57;;
16033;SDS011;8121;51.418;6.998;2023-01-09T12:31:52;4.10;;;1.13;;
16033;SDS011;8121;51.418;6.998;2023-01-09T12:42:07;4.80;;;1.13;;
16033;SDS011;8121;51.418;6.998;2023-01-09T12:52:15;5.90;;;0.83;;
16033;SDS011;8121;51.418;6.998;2023-01-09T13:02:24;2.00;;;0.83;;
16033;SDS011;8121;51.418;6.998;2023-01-09T13:12:30;2.60;;;0.70;;
16033;SDS011;8121;51.418;6.998;2023-01-09T13:22:36;2.07;;;0.87;;
16033;SDS011;8121;51.418;6.998;2023-01-09T13:32:40;1.40;;;1.10;;
16033;SDS011;8121;51.418;6.998;2023-01-09T13:42:54;1.97;;;0.80;;
16033;SDS011;8121;51.418;6.998;2023-01-09T13:52:58;1.83;;;0.60;;
16033;SDS011;8121;51.418;6.998;2023-01-09T14:03:38;3.00;;;0.73;;
16033;SDS011;8121;51.418;6.998;2023-01-09T14:13:40;4.00;;;1.67;;
16033;SDS011;8121;51.418;6.998;2023-01-09T14:23:49;1.23;;;0.90;;
16033;SDS011;8121;51.418;6.998;2023-01-09T14:44:28;3.53;;;0.77;;
16033;SDS011;8121;51.418;6.998;2023-01-09T14:54:30;1.17;;;0.97;;
16033;SDS011;8121;51.418;6.998;2023-01-09T15:04:38;1.70;;;0.97;;
16033;SDS011;8121;51.418;6.998;2023-01-09T15:14:42;0.80;;;0.80;;
16033;SDS011;8121;51.418;6.998;2023-01-09T15:24:46;1.00;;;0.77;;
16033;SDS011;8121;51.418;6.998;2023-01-09T15:34:49;3.07;;;1.10;;
16033;SDS011;8121;51.418;6.998;2023-01-09T15:44:52;1.30;;;1.20;;
16033;SDS011;8121;51.418;6.998;2023-01-09T15:54:54;1.40;;;1.10;;
16033;SDS011;8121;51.418;6.998;2023-01-09T16:04:57;3.70;;;1.57;;
16033;SDS011;8121;51.418;6.998;2023-01-09T16:14:59;3.27;;;1.20;;
16033;SDS011;8121;51.418;6.998;2023-01-09T16:25:21;1.97;;;1.87;;
16033;SDS011;8121;51.418;6.998;2023-01-09T16:35:25;1.87;;;1.00;;
16033;SDS011;8121;51.418;6.998;2023-01-09T16:45:28;2.90;;;1.67;;
16033;SDS011;8121;51.418;6.998;2023-01-09T16:55:31;1.73;;;1.37;;
16033;SDS011;8121;51.418;6.998;2023-01-09T17:05:34;1.53;;;1.43;;
16033;SDS011;8121;51.418;6.998;2023-01-09T17:15:37;2.77;;;2.27;;
16033;SDS011;8121;51.418;6.998;2023-01-09T17:26:10;2.47;;;1.67;;
16033;SDS011;8121;51.418;6.998;2023-01-09T17:36:36;2.70;;;1.67;;
16033;SDS011;8121;51.418;6.998;2023-01-09T17:57:10;2.20;;;1.20;;
16033;SDS011;8121;51.418;6.998;2023-01-09T18:07:16;0.90;;;0.90;;
16033;SDS011;8121;51.418;6.998;2023-01-09T18:17:18;4.20;;;2.10;;
16033;SDS011;8121;51.418;6.998;2023-01-09T18:27:20;3.70;;;2.77;;
16033;SDS011;8121;51.418;6.998;2023-01-09T18:37:22;2.37;;;2.17;;
16033;SDS011;8121;51.418;6.998;2023-01-09T18:47:25;2.27;;;2.17;;
16033;SDS011;8121;51.418;6.998;2023-01-09T18:57:27;3.50;;;3.00;;
16033;SDS011;8121;51.418;6.998;2023-01-09T19:07:33;5.10;;;3.83;;
16033;SDS011;8121;51.418;6.998;2023-01-09T19:17:36;2.53;;;2.30;;
16033;SDS011;8121;51.418;6.998;2023-01-09T19:27:40;3.00;;;2.80;;
16033;SDS011;8121;51.418;6.998;2023-01-09T19:37:42;4.00;;;2.90;;
16033;SDS011;8121;51.418;6.998;2023-01-09T19:47:47;4.53;;;3.60;;
16033;SDS011;8121;51.418;6.998;2023-01-09T19:57:49;4.33;;;3.10;;
16033;SDS011;8121;51.418;6.998;2023-01-09T20:07:53;2.70;;;2.50;;
16033;SDS011;8121;51.418;6.998;2023-01-09T20:17:55;4.93;;;2.40;;
16033;SDS011;8121;51.418;6.998;2023-01-09T20:27:58;5.40;;;4.33;;
16033;SDS011;8121;51.418;6.998;2023-01-09T20:38:00;3.43;;;2.10;;
16033;SDS011;8121;51.418;6.998;2023-01-09T20:48:04;6.10;;;2.57;;
16033;SDS011;8121;51.418;6.998;2023-01-09T20:58:05;6.57;;;2.70;;
16033;SDS011;8121;51.418;6.998;2023-01-09T21:08:08;5.17;;;4.17;;
16033;SDS011;8121;51.418;6.998;2023-01-09T21:18:10;2.27;;;2.17;;
16033;SDS011;8121;51.418;6.998;2023-01-09T21:28:15;9.03;;;4.40;;
16033;SDS011;8121;51.418;6.998;2023-01-09T21:38:19;4.83;;;3.33;;
16033;SDS011;8121;51.418;6.998;2023-01-09T21:48:22;5.13;;;4.03;;
16033;SDS011;8121;51.418;6.998;2023-01-09T21:58:24;7.67;;;4.17;;
16033;SDS011;8121;51.418;6.998;2023-01-09T22:08:27;5.57;;;2.90;;
16033;SDS011;8121;51.418;6.998;2023-01-09T22:18:28;10.50;;;3.40;;
16033;SDS011;8121;51.418;6.998;2023-01-09T22:28:31;2.00;;;1.80;;
16033;SDS011;8121;51.418;6.998;2023-01-09T22:38:33;2.77;;;2.43;;
16033;SDS011;8121;51.418;6.998;2023-01-09T22:48:36;3.20;;;2.30;;
16033;SDS011;8121;51.418;6.998;2023-01-09T22:58:38;4.90;;;2.13;;
16033;SDS011;8121;51.418;6.998;2023-01-09T23:08:41;4.97;;;2.60;;
16033;SDS011;8121;51.418;6.998;2023-01-09T23:18:43;6.90;;;2.27;;
16033;SDS011;8121;51.418;6.998;2023-01-09T23:28:46;4.70;;;3.73;;
16033;SDS011;8121;51.418;6.998;2023-01-09T23:38:48;5.57;;;3.37;;
16033;SDS011;8121;51.418;6.998;2023-01-09T23:48:51;5.23;;;4.00;;
16033;SDS011;8121;51.418;6.998;2023-01-09T23:58:52;6.03;;;2.70;;
